createdAt,value
2023-03-05T00:00:01.848Z,3.38
2023-03-05T00:00:33.217Z,1.80
2023-03-05T00:01:08.273Z,3.30
2023-03-05T00:01:39.955Z,3.05
2023-03-05T00:02:11.326Z,3.70
2023-03-05T00:02:43.123Z,1.92
2023-03-05T00:03:14.496Z,1.98
2023-03-05T00:03:46.285Z,3.13
2023-03-05T00:04:17.881Z,2.40
2023-03-05T00:04:49.201Z,1.05
2023-03-05T00:05:20.521Z,2.53
2023-03-05T00:05:55.975Z,2.65
2023-03-05T00:06:28.442Z,3.67
2023-03-05T00:06:59.823Z,2.40
2023-03-05T00:07:31.681Z,3.72
2023-03-05T00:08:03.225Z,1.40
2023-03-05T00:08:34.666Z,3.97
2023-03-05T00:09:06.274Z,3.33
2023-03-05T00:09:38.050Z,1.20
2023-03-05T00:10:09.678Z,2.38
2023-03-05T00:10:41.063Z,3.60
2023-03-05T00:11:12.618Z,4.28
2023-03-05T00:11:43.977Z,3.50
2023-03-05T00:12:15.322Z,2.35
2023-03-05T00:12:46.677Z,1.98
2023-03-05T00:13:18.020Z,6.20
2023-03-05T00:13:51.618Z,3.60
2023-03-05T00:14:23.016Z,2.45
2023-03-05T00:14:54.451Z,1.88
2023-03-05T00:15:25.984Z,4.90
2023-03-05T00:15:57.399Z,2.70
2023-03-05T00:16:28.997Z,2.90
2023-03-05T00:17:00.358Z,2.72
2023-03-05T00:17:31.702Z,2.30
2023-03-05T00:18:03.058Z,3.63
2023-03-05T00:18:34.555Z,2.90
2023-03-05T00:19:06.045Z,2.90
2023-03-05T00:19:37.400Z,5.30
2023-03-05T00:20:09.161Z,3.85
2023-03-05T00:20:40.537Z,3.38
2023-03-05T00:21:19.504Z,3.50
2023-03-05T00:21:50.823Z,4.00
2023-03-05T00:22:22.424Z,3.47
2023-03-05T00:22:53.741Z,3.50
2023-03-05T00:23:25.196Z,1.85
2023-03-05T00:23:57.277Z,4.60
2023-03-05T00:24:28.619Z,4.30
2023-03-05T00:24:59.976Z,4.83
2023-03-05T00:25:31.330Z,3.95
2023-03-05T00:26:02.733Z,1.40
2023-03-05T00:26:35.534Z,3.00
2023-03-05T00:27:06.881Z,2.37
2023-03-05T00:27:38.295Z,2.63
2023-03-05T00:28:09.819Z,1.95
2023-03-05T00:28:41.250Z,1.77
2023-03-05T00:29:15.174Z,2.50
2023-03-05T00:29:46.504Z,1.75
2023-03-05T00:30:17.939Z,1.77
2023-03-05T00:30:49.295Z,3.30
2023-03-05T00:31:22.077Z,1.00
2023-03-05T00:31:53.461Z,2.00
2023-03-05T00:32:24.876Z,1.92
2023-03-05T00:32:56.307Z,1.83
2023-03-05T00:33:27.692Z,3.25
2023-03-05T00:34:00.563Z,2.78
2023-03-05T00:34:32.010Z,4.15
2023-03-05T00:35:03.455Z,4.30
2023-03-05T00:35:41.656Z,1.17
2023-03-05T00:36:13.007Z,1.70
2023-03-05T00:36:48.563Z,3.65
2023-03-05T00:37:19.949Z,1.40
2023-03-05T00:37:51.305Z,3.50
2023-03-05T00:38:22.666Z,2.88
2023-03-05T00:38:54.655Z,3.08
2023-03-05T00:39:25.995Z,2.28
2023-03-05T00:39:57.434Z,1.55
2023-03-05T00:40:28.793Z,2.90
2023-03-05T00:41:00.179Z,2.55
2023-03-05T00:41:31.533Z,1.70
2023-03-05T00:42:02.878Z,3.42
2023-03-05T00:42:34.233Z,2.17
2023-03-05T00:43:06.228Z,3.05
2023-03-05T00:43:37.610Z,3.38
2023-03-05T00:44:09.270Z,3.80
2023-03-05T00:44:40.632Z,2.17
2023-03-05T00:45:12.166Z,2.60
2023-03-05T00:45:43.495Z,2.28
2023-03-05T00:46:14.869Z,3.70
2023-03-05T00:46:46.264Z,2.00
2023-03-05T00:47:17.676Z,4.53
2023-03-05T00:47:49.011Z,0.98
2023-03-05T00:48:20.398Z,3.60
2023-03-05T00:48:51.748Z,2.88
2023-03-05T00:49:23.082Z,1.50
2023-03-05T00:49:54.447Z,2.63
2023-03-05T00:50:25.832Z,2.15
2023-03-05T00:50:57.199Z,1.58
2023-03-05T00:51:28.515Z,1.40
2023-03-05T00:51:59.820Z,2.58
2023-03-05T00:52:31.156Z,2.03
2023-03-05T00:53:02.534Z,3.33
2023-03-05T00:53:33.883Z,2.40
2023-03-05T00:54:05.561Z,5.20
2023-03-05T00:54:36.905Z,2.25
2023-03-05T00:55:08.331Z,3.92
2023-03-05T00:55:39.653Z,2.70
2023-03-05T00:56:11.045Z,2.50
2023-03-05T00:56:42.410Z,2.38
2023-03-05T00:57:13.814Z,4.68
2023-03-05T00:57:45.612Z,4.05
2023-03-05T00:58:17.273Z,4.35
2023-03-05T00:58:48.605Z,3.13
2023-03-05T00:59:19.963Z,3.65
2023-03-05T00:59:51.327Z,2.60
2023-03-05T01:00:22.668Z,2.72
2023-03-05T01:00:57.063Z,1.95
2023-03-05T01:01:28.518Z,2.88
2023-03-05T01:02:00.040Z,4.20
2023-03-05T01:02:33.758Z,1.88
2023-03-05T01:03:06.124Z,4.67
2023-03-05T01:03:37.537Z,2.38
2023-03-05T01:04:09.051Z,1.95
2023-03-05T01:04:40.404Z,3.60
2023-03-05T01:05:12.602Z,2.60
2023-03-05T01:05:44.015Z,4.00
2023-03-05T01:06:15.435Z,4.05
2023-03-05T01:06:46.840Z,1.30
2023-03-05T01:07:18.163Z,4.45
2023-03-05T01:07:52.161Z,1.77
2023-03-05T01:08:24.043Z,3.03
2023-03-05T01:08:55.680Z,4.40
2023-03-05T01:09:27.030Z,3.63
2023-03-05T01:09:58.397Z,4.40
2023-03-05T01:10:29.873Z,5.53
2023-03-05T01:11:01.412Z,3.15
2023-03-05T01:11:32.754Z,3.25
2023-03-05T01:12:04.246Z,3.70
2023-03-05T01:12:35.581Z,3.22
2023-03-05T01:13:06.914Z,2.25
2023-03-05T01:13:38.246Z,1.58
2023-03-05T01:14:09.602Z,3.47
2023-03-05T01:14:40.948Z,3.22
2023-03-05T01:15:12.325Z,3.17
2023-03-05T01:15:43.653Z,6.40
2023-03-05T01:16:15.115Z,3.63
2023-03-05T01:16:46.681Z,2.35
2023-03-05T01:17:18.012Z,2.50
2023-03-05T01:17:49.382Z,2.30
2023-03-05T01:18:20.987Z,2.10
2023-03-05T01:18:52.364Z,1.88
2023-03-05T01:19:23.790Z,2.85
2023-03-05T01:19:55.134Z,1.80
2023-03-05T01:20:26.635Z,4.55
2023-03-05T01:20:57.993Z,2.65
2023-03-05T01:21:29.341Z,2.35
2023-03-05T01:22:00.668Z,1.83
2023-03-05T01:22:32.017Z,3.40
2023-03-05T01:23:03.354Z,4.07
2023-03-05T01:23:34.820Z,3.30
2023-03-05T01:24:06.306Z,2.50
2023-03-05T01:24:37.646Z,2.40
2023-03-05T01:25:09.445Z,5.43
2023-03-05T01:25:41.298Z,2.67
2023-03-05T01:26:13.199Z,1.10
2023-03-05T01:26:44.567Z,3.30
2023-03-05T01:27:15.910Z,3.42
2023-03-05T01:27:47.272Z,4.37
2023-03-05T01:28:18.609Z,4.60
2023-03-05T01:28:49.958Z,3.00
2023-03-05T01:29:21.330Z,3.97
2023-03-05T01:29:52.655Z,4.47
2023-03-05T01:30:24.085Z,5.43
2023-03-05T01:30:55.555Z,6.88
2023-03-05T01:31:26.996Z,7.07
2023-03-05T01:31:58.412Z,4.50
2023-03-05T01:32:29.866Z,4.82
2023-03-05T01:33:01.427Z,4.32
2023-03-05T01:33:32.749Z,5.38
2023-03-05T01:34:04.117Z,7.32
2023-03-05T01:34:36.695Z,6.55
2023-03-05T01:35:08.296Z,7.07
2023-03-05T01:35:39.649Z,11.20
2023-03-05T01:36:12.437Z,12.03
2023-03-05T01:36:43.759Z,12.68
2023-03-05T01:37:15.180Z,10.73
2023-03-05T01:37:46.538Z,12.25
2023-03-05T01:38:17.875Z,13.90
2023-03-05T01:38:49.186Z,14.90
2023-03-05T01:39:20.546Z,14.00
2023-03-05T01:39:51.877Z,15.52
2023-03-05T01:40:27.562Z,14.10
2023-03-05T01:40:58.866Z,14.85
2023-03-05T01:41:30.199Z,14.27
2023-03-05T01:42:01.715Z,13.95
2023-03-05T01:42:33.084Z,13.02
2023-03-05T01:43:10.640Z,14.35
2023-03-05T01:43:42.051Z,12.30
2023-03-05T01:44:25.088Z,6.60
2023-03-05T01:45:12.005Z,6.00
2023-03-05T01:46:02.357Z,5.20
2023-03-05T01:46:37.681Z,4.23
2023-03-05T01:47:09.009Z,5.10
2023-03-05T01:47:40.340Z,3.17
2023-03-05T01:48:11.855Z,2.75
2023-03-05T01:48:45.586Z,2.90
2023-03-05T01:49:29.239Z,2.03
2023-03-05T01:50:00.613Z,4.55
2023-03-05T01:50:32.514Z,3.33
2023-03-05T01:51:04.022Z,3.50
2023-03-05T01:51:38.147Z,1.70
2023-03-05T01:52:17.715Z,2.92
2023-03-05T01:53:09.369Z,2.88
2023-03-05T01:53:41.205Z,5.60
2023-03-05T01:54:14.006Z,3.67
2023-03-05T01:54:47.779Z,2.78
2023-03-05T01:55:26.310Z,3.30
2023-03-05T01:55:57.924Z,2.72
2023-03-05T01:56:29.455Z,2.50
2023-03-05T01:57:04.053Z,2.35
2023-03-05T01:57:38.037Z,2.55
2023-03-05T01:58:11.208Z,3.15
2023-03-05T01:58:43.358Z,3.20
2023-03-05T01:59:15.110Z,3.15
2023-03-05T01:59:48.283Z,3.67
2023-03-05T02:00:22.521Z,4.22
2023-03-05T02:00:54.598Z,2.63
2023-03-05T02:01:26.253Z,3.45
2023-03-05T02:01:58.082Z,2.57
2023-03-05T02:02:29.674Z,1.90
2023-03-05T02:03:03.531Z,4.05
2023-03-05T02:03:35.569Z,4.60
2023-03-05T02:04:07.883Z,2.10
2023-03-05T02:04:48.481Z,3.40
2023-03-05T02:05:23.351Z,3.67
2023-03-05T02:05:54.722Z,3.40
2023-03-05T02:06:26.133Z,5.47
2023-03-05T02:06:57.484Z,3.45
2023-03-05T02:07:29.656Z,5.15
2023-03-05T02:08:02.172Z,4.50
2023-03-05T02:08:33.514Z,5.60
2023-03-05T02:09:04.902Z,5.60
2023-03-05T02:09:40.081Z,7.53
2023-03-05T02:10:17.727Z,7.22
2023-03-05T02:10:50.752Z,8.57
2023-03-05T02:11:22.140Z,7.88
2023-03-05T02:11:53.470Z,6.82
2023-03-05T02:12:25.010Z,6.70
2023-03-05T02:12:57.668Z,7.55
2023-03-05T02:13:33.722Z,8.63
2023-03-05T02:14:05.243Z,9.37
2023-03-05T02:14:36.661Z,10.40
2023-03-05T02:15:08.343Z,8.80
2023-03-05T02:15:39.738Z,8.77
2023-03-05T02:16:11.268Z,6.50
2023-03-05T02:16:42.681Z,7.93
2023-03-05T02:17:14.703Z,9.65
2023-03-05T02:17:46.227Z,11.23
2023-03-05T02:18:18.624Z,9.05
2023-03-05T02:18:49.949Z,10.75
2023-03-05T02:19:21.323Z,11.50
2023-03-05T02:19:54.889Z,10.87
2023-03-05T02:20:27.641Z,8.60
2023-03-05T02:21:08.898Z,8.82
2023-03-05T02:21:44.779Z,10.20
2023-03-05T02:22:20.048Z,7.80
2023-03-05T02:22:51.464Z,9.60
2023-03-05T02:23:24.556Z,9.55
2023-03-05T02:23:55.891Z,9.88
2023-03-05T02:24:37.149Z,10.57
2023-03-05T02:25:20.518Z,10.27
2023-03-05T02:25:52.159Z,8.30
2023-03-05T02:26:23.515Z,7.65
2023-03-05T02:26:54.895Z,8.83
2023-03-05T02:27:30.013Z,9.95
2023-03-05T02:28:01.301Z,7.30
2023-03-05T02:28:35.586Z,10.90
2023-03-05T02:29:08.005Z,9.88
2023-03-05T02:29:41.818Z,9.32
2023-03-05T02:30:13.234Z,8.93
2023-03-05T02:30:44.627Z,7.37
2023-03-05T02:31:18.049Z,7.10
2023-03-05T02:31:49.420Z,7.05
2023-03-05T02:32:20.954Z,6.50
2023-03-05T02:32:52.353Z,5.78
2023-03-05T02:33:23.838Z,5.75
2023-03-05T02:33:55.231Z,5.85
2023-03-05T02:34:26.724Z,5.40
2023-03-05T02:34:58.080Z,4.78
2023-03-05T02:35:29.592Z,6.53
2023-03-05T02:36:01.005Z,5.23
2023-03-05T02:36:32.738Z,5.07
2023-03-05T02:37:04.311Z,6.93
2023-03-05T02:37:35.631Z,4.90
2023-03-05T02:38:06.944Z,6.45
2023-03-05T02:38:38.863Z,2.83
2023-03-05T02:39:10.229Z,3.60
2023-03-05T02:39:41.565Z,2.92
2023-03-05T02:40:13.473Z,4.50
2023-03-05T02:40:44.819Z,2.92
2023-03-05T02:41:16.352Z,5.30
2023-03-05T02:41:47.672Z,3.55
2023-03-05T02:42:19.013Z,2.53
2023-03-05T02:42:50.736Z,3.63
2023-03-05T02:43:22.051Z,2.45
2023-03-05T02:43:53.427Z,1.63
2023-03-05T02:44:24.860Z,3.27
2023-03-05T02:44:56.212Z,3.10
2023-03-05T02:45:27.622Z,3.47
2023-03-05T02:45:59.035Z,2.05
2023-03-05T02:46:30.420Z,2.63
2023-03-05T02:47:01.865Z,4.25
2023-03-05T02:47:33.242Z,3.23
2023-03-05T02:48:04.671Z,2.90
2023-03-05T02:48:36.088Z,3.05
2023-03-05T02:49:07.455Z,2.75
2023-03-05T02:49:38.852Z,2.15
2023-03-05T02:50:10.998Z,3.25
2023-03-05T02:50:42.808Z,3.38
2023-03-05T02:51:14.244Z,2.85
2023-03-05T02:51:45.587Z,1.35
2023-03-05T02:52:16.917Z,2.58
2023-03-05T02:52:48.259Z,2.60
2023-03-05T02:53:19.591Z,2.22
2023-03-05T02:53:50.933Z,3.60
2023-03-05T02:54:22.341Z,3.30
2023-03-05T02:54:53.738Z,1.63
2023-03-05T02:55:25.242Z,1.10
2023-03-05T02:55:56.577Z,2.00
2023-03-05T02:56:27.903Z,3.50
2023-03-05T02:56:59.237Z,1.42
2023-03-05T02:57:30.607Z,2.63
2023-03-05T02:58:01.968Z,2.47
2023-03-05T02:58:33.384Z,3.15
2023-03-05T02:59:04.912Z,2.55
2023-03-05T02:59:36.357Z,1.75
2023-03-05T03:00:08.265Z,1.90
2023-03-05T03:00:39.674Z,1.10
2023-03-05T03:01:11.143Z,1.33
2023-03-05T03:01:42.620Z,1.80
2023-03-05T03:02:14.097Z,2.75
2023-03-05T03:02:45.470Z,2.00
2023-03-05T03:03:16.931Z,1.75
2023-03-05T03:03:48.423Z,1.98
2023-03-05T03:04:19.749Z,0.57
2023-03-05T03:04:51.110Z,1.48
2023-03-05T03:05:22.510Z,2.58
2023-03-05T03:05:53.827Z,2.25
2023-03-05T03:06:25.180Z,2.30
2023-03-05T03:06:56.565Z,1.95
2023-03-05T03:07:27.944Z,1.55
2023-03-05T03:07:59.301Z,1.35
2023-03-05T03:08:30.909Z,1.83
2023-03-05T03:09:02.296Z,2.25
2023-03-05T03:09:34.380Z,2.08
2023-03-05T03:10:05.992Z,2.35
2023-03-05T03:10:37.405Z,1.60
2023-03-05T03:11:09.653Z,1.63
2023-03-05T03:11:41.088Z,1.77
2023-03-05T03:12:12.417Z,1.48
2023-03-05T03:12:44.350Z,1.10
2023-03-05T03:13:15.689Z,1.85
2023-03-05T03:13:47.156Z,3.03
2023-03-05T03:14:18.613Z,1.47
2023-03-05T03:14:49.946Z,1.95
2023-03-05T03:15:21.424Z,0.68
2023-03-05T03:16:01.482Z,1.85
2023-03-05T03:16:33.771Z,2.10
2023-03-05T03:17:08.695Z,2.10
2023-03-05T03:17:40.080Z,1.77
2023-03-05T03:18:11.469Z,1.95
2023-03-05T03:18:42.913Z,2.00
2023-03-05T03:19:14.887Z,1.40
2023-03-05T03:19:46.249Z,2.80
2023-03-05T03:20:17.828Z,2.13
2023-03-05T03:20:49.286Z,1.20
2023-03-05T03:21:22.354Z,1.60
2023-03-05T03:21:53.702Z,1.27
2023-03-05T03:22:25.051Z,1.20
2023-03-05T03:22:56.450Z,1.20
2023-03-05T03:23:27.937Z,1.38
2023-03-05T03:23:59.308Z,1.50
2023-03-05T03:24:31.139Z,0.57
2023-03-05T03:25:02.993Z,1.02
2023-03-05T03:25:34.446Z,1.23
2023-03-05T03:26:05.789Z,2.70
2023-03-05T03:26:37.167Z,0.90
2023-03-05T03:27:08.955Z,2.03
2023-03-05T03:27:40.298Z,2.10
2023-03-05T03:28:11.624Z,1.55
2023-03-05T03:28:43.342Z,2.25
2023-03-05T03:29:14.686Z,1.60
2023-03-05T03:29:45.998Z,0.93
2023-03-05T03:30:17.420Z,1.90
2023-03-05T03:30:48.863Z,1.38
2023-03-05T03:31:20.310Z,1.85
2023-03-05T03:31:52.043Z,0.80
2023-03-05T03:32:23.469Z,1.92
2023-03-05T03:32:54.895Z,2.05
2023-03-05T03:33:26.226Z,0.80
2023-03-05T03:33:57.548Z,1.45
2023-03-05T03:34:28.883Z,2.40
2023-03-05T03:35:00.281Z,1.45
2023-03-05T03:35:31.621Z,0.93
2023-03-05T03:36:04.042Z,0.98
2023-03-05T03:36:35.386Z,1.77
2023-03-05T03:37:06.897Z,2.25
2023-03-05T03:37:38.268Z,2.30
2023-03-05T03:38:09.603Z,1.45
2023-03-05T03:38:43.048Z,2.13
2023-03-05T03:39:14.390Z,1.85
2023-03-05T03:39:45.742Z,2.10
2023-03-05T03:40:17.150Z,0.82
2023-03-05T03:40:48.492Z,2.17
2023-03-05T03:41:19.820Z,1.47
2023-03-05T03:41:51.966Z,1.75
2023-03-05T03:42:23.362Z,1.40
2023-03-05T03:42:54.876Z,2.15
2023-03-05T03:43:26.231Z,1.95
2023-03-05T03:43:57.762Z,1.70
2023-03-05T03:44:29.085Z,2.40
2023-03-05T03:45:00.437Z,0.63
2023-03-05T03:45:31.871Z,1.15
2023-03-05T03:46:04.414Z,1.75
2023-03-05T03:46:35.945Z,1.83
2023-03-05T03:47:07.338Z,1.55
2023-03-05T03:47:38.728Z,2.70
2023-03-05T03:48:10.690Z,0.90
2023-03-05T03:48:42.021Z,2.50
2023-03-05T03:49:23.686Z,2.90
2023-03-05T03:49:55.073Z,1.73
2023-03-05T03:50:26.417Z,2.00
2023-03-05T03:50:57.849Z,2.20
2023-03-05T03:51:29.338Z,1.92
2023-03-05T03:52:00.689Z,0.88
2023-03-05T03:52:32.130Z,1.60
2023-03-05T03:53:03.575Z,0.90
2023-03-05T03:53:34.961Z,1.02
2023-03-05T03:54:06.336Z,1.98
2023-03-05T03:54:37.692Z,1.42
2023-03-05T03:55:09.322Z,2.00
2023-03-05T03:55:41.788Z,3.75
2023-03-05T03:56:13.117Z,3.42
2023-03-05T03:56:44.517Z,1.38
2023-03-05T03:57:15.909Z,2.33
2023-03-05T03:57:47.277Z,3.80
2023-03-05T03:58:18.732Z,1.55
2023-03-05T03:58:51.018Z,1.90
2023-03-05T03:59:22.625Z,1.95
2023-03-05T03:59:53.938Z,1.30
2023-03-05T04:00:25.264Z,1.88
2023-03-05T04:00:56.603Z,2.13
2023-03-05T04:01:27.925Z,1.45
2023-03-05T04:01:59.253Z,1.52
2023-03-05T04:02:30.613Z,1.88
2023-03-05T04:03:01.965Z,2.30
2023-03-05T04:03:33.317Z,2.30
2023-03-05T04:04:05.011Z,1.75
2023-03-05T04:04:36.483Z,1.63
2023-03-05T04:05:08.149Z,1.55
2023-03-05T04:05:39.496Z,2.47
2023-03-05T04:06:10.958Z,1.92
2023-03-05T04:06:42.289Z,2.30
2023-03-05T04:07:13.610Z,1.45
2023-03-05T04:07:44.966Z,1.15
2023-03-05T04:08:16.365Z,1.63
2023-03-05T04:08:47.785Z,4.65
2023-03-05T04:09:19.151Z,2.40
2023-03-05T04:09:50.523Z,0.60
2023-03-05T04:10:21.886Z,0.88
2023-03-05T04:10:53.316Z,1.45
2023-03-05T04:11:25.238Z,1.45
2023-03-05T04:11:56.553Z,2.05
2023-03-05T04:12:27.872Z,3.53
2023-03-05T04:12:59.224Z,0.73
2023-03-05T04:13:30.847Z,1.45
2023-03-05T04:14:02.294Z,1.90
2023-03-05T04:14:33.864Z,1.83
2023-03-05T04:15:05.454Z,1.25
2023-03-05T04:15:36.801Z,0.95
2023-03-05T04:16:08.369Z,1.45
2023-03-05T04:16:39.734Z,0.68
2023-03-05T04:17:11.768Z,2.38
2023-03-05T04:17:43.148Z,1.00
2023-03-05T04:18:14.521Z,0.73
2023-03-05T04:18:46.046Z,2.03
2023-03-05T04:19:17.438Z,1.70
2023-03-05T04:19:48.805Z,2.80
2023-03-05T04:20:20.225Z,1.35
2023-03-05T04:20:51.580Z,1.50
2023-03-05T04:21:22.895Z,1.05
2023-03-05T04:21:54.198Z,2.40
2023-03-05T04:22:25.544Z,1.15
2023-03-05T04:22:56.921Z,1.50
2023-03-05T04:23:28.319Z,2.20
2023-03-05T04:23:59.701Z,4.03
2023-03-05T04:24:31.082Z,1.63
2023-03-05T04:25:02.906Z,1.92
2023-03-05T04:25:34.296Z,2.45
2023-03-05T04:26:05.911Z,1.10
2023-03-05T04:26:37.283Z,1.70
2023-03-05T04:27:09.081Z,1.58
2023-03-05T04:27:40.554Z,0.75
2023-03-05T04:28:12.099Z,1.77
2023-03-05T04:28:43.457Z,1.30
2023-03-05T04:29:14.802Z,3.60
2023-03-05T04:29:46.179Z,1.85
2023-03-05T04:30:17.835Z,1.60
2023-03-05T04:30:49.387Z,1.15
2023-03-05T04:31:20.858Z,1.38
2023-03-05T04:31:52.264Z,2.13
2023-03-05T04:32:23.658Z,2.27
2023-03-05T04:32:55.029Z,2.85
2023-03-05T04:33:26.406Z,2.38
2023-03-05T04:33:57.721Z,1.60
2023-03-05T04:34:29.063Z,0.77
2023-03-05T04:35:00.650Z,1.95
2023-03-05T04:35:32.055Z,1.48
2023-03-05T04:36:03.506Z,0.80
2023-03-05T04:36:34.822Z,1.77
2023-03-05T04:37:06.201Z,2.55
2023-03-05T04:37:37.638Z,2.50
2023-03-05T04:38:09.166Z,2.05
2023-03-05T04:38:40.492Z,2.35
2023-03-05T04:39:11.997Z,1.80
2023-03-05T04:39:43.320Z,2.05
2023-03-05T04:40:14.848Z,1.40
2023-03-05T04:40:46.471Z,2.25
2023-03-05T04:41:17.810Z,0.82
2023-03-05T04:41:49.216Z,0.90
2023-03-05T04:42:20.601Z,1.10
2023-03-05T04:42:51.937Z,6.60
2023-03-05T04:43:23.430Z,2.67
2023-03-05T04:43:54.747Z,1.35
2023-03-05T04:44:26.161Z,0.87
2023-03-05T04:44:57.528Z,2.10
2023-03-05T04:45:28.894Z,1.95
2023-03-05T04:46:00.247Z,1.70
2023-03-05T04:46:31.653Z,2.13
2023-03-05T04:47:03.064Z,1.83
2023-03-05T04:47:34.707Z,1.50
2023-03-05T04:48:06.218Z,1.13
2023-03-05T04:48:37.568Z,2.03
2023-03-05T04:49:08.910Z,2.25
2023-03-05T04:49:40.370Z,1.23
2023-03-05T04:50:12.162Z,2.27
2023-03-05T04:50:43.527Z,2.72
2023-03-05T04:51:14.947Z,1.23
2023-03-05T04:51:46.268Z,2.00
2023-03-05T04:52:17.625Z,0.70
2023-03-05T04:52:49.017Z,1.50
2023-03-05T04:53:20.363Z,3.20
2023-03-05T04:53:51.695Z,1.55
2023-03-05T04:54:23.642Z,3.50
2023-03-05T04:54:55.043Z,1.35
2023-03-05T04:55:26.796Z,1.55
2023-03-05T04:55:58.215Z,2.20
2023-03-05T04:56:29.543Z,2.80
2023-03-05T04:57:00.919Z,2.88
2023-03-05T04:57:32.340Z,1.60
2023-03-05T04:58:03.697Z,1.20
2023-03-05T04:58:35.026Z,4.18
2023-03-05T04:59:06.356Z,1.75
2023-03-05T04:59:38.221Z,3.08
2023-03-05T05:00:11.705Z,2.25
2023-03-05T05:00:43.088Z,3.28
2023-03-05T05:01:14.465Z,2.40
2023-03-05T05:01:45.878Z,2.30
2023-03-05T05:02:17.237Z,4.20
2023-03-05T05:02:49.898Z,1.85
2023-03-05T05:03:21.358Z,1.88
2023-03-05T05:03:52.720Z,3.05
2023-03-05T05:04:24.091Z,1.85
2023-03-05T05:04:55.584Z,4.30
2023-03-05T05:05:27.613Z,4.28
2023-03-05T05:06:00.040Z,1.50
2023-03-05T05:06:31.404Z,3.50
2023-03-05T05:07:02.758Z,1.80
2023-03-05T05:07:34.079Z,1.17
2023-03-05T05:08:05.497Z,4.00
2023-03-05T05:08:36.841Z,3.25
2023-03-05T05:09:08.207Z,1.92
2023-03-05T05:09:39.592Z,1.70
2023-03-05T05:10:12.367Z,2.10
2023-03-05T05:10:43.728Z,2.40
2023-03-05T05:11:15.120Z,2.03
2023-03-05T05:11:46.478Z,1.65
2023-03-05T05:12:17.867Z,2.03
2023-03-05T05:12:49.199Z,1.15
2023-03-05T05:13:20.541Z,1.45
2023-03-05T05:13:51.886Z,2.03
2023-03-05T05:14:23.261Z,1.80
2023-03-05T05:14:54.643Z,2.90
2023-03-05T05:15:25.997Z,1.98
2023-03-05T05:15:57.985Z,1.08
2023-03-05T05:16:29.576Z,2.63
2023-03-05T05:17:00.995Z,3.67
2023-03-05T05:17:32.431Z,1.00
2023-03-05T05:18:03.833Z,2.97
2023-03-05T05:18:35.305Z,1.48
2023-03-05T05:19:06.708Z,2.83
2023-03-05T05:19:38.185Z,1.00
2023-03-05T05:20:11.148Z,1.40
2023-03-05T05:20:42.501Z,1.60
2023-03-05T05:21:14.440Z,2.20
2023-03-05T05:21:46.021Z,1.30
2023-03-05T05:22:17.688Z,1.35
2023-03-05T05:22:49.058Z,1.70
2023-03-05T05:23:20.445Z,1.58
2023-03-05T05:23:51.792Z,3.22
2023-03-05T05:24:23.108Z,2.78
2023-03-05T05:24:54.886Z,0.87
2023-03-05T05:25:26.218Z,1.15
2023-03-05T05:26:01.318Z,2.20
2023-03-05T05:26:32.695Z,2.53
2023-03-05T05:27:04.039Z,2.75
2023-03-05T05:27:35.802Z,2.20
2023-03-05T05:28:07.130Z,3.38
2023-03-05T05:28:38.481Z,2.30
2023-03-05T05:29:09.826Z,1.65
2023-03-05T05:29:41.163Z,2.65
2023-03-05T05:30:12.721Z,2.20
2023-03-05T05:30:44.072Z,3.00
2023-03-05T05:31:16.053Z,2.55
2023-03-05T05:31:47.644Z,2.28
2023-03-05T05:32:20.787Z,1.38
2023-03-05T05:32:52.189Z,2.30
2023-03-05T05:33:23.868Z,2.08
2023-03-05T05:33:55.248Z,1.40
2023-03-05T05:34:26.607Z,2.20
2023-03-05T05:34:58.433Z,1.50
2023-03-05T05:35:29.905Z,1.88
2023-03-05T05:36:04.882Z,1.45
2023-03-05T05:36:36.252Z,1.15
2023-03-05T05:37:07.636Z,1.25
2023-03-05T05:37:39.038Z,2.35
2023-03-05T05:38:10.635Z,1.40
2023-03-05T05:38:42.337Z,2.95
2023-03-05T05:39:13.692Z,1.17
2023-03-05T05:39:45.049Z,2.58
2023-03-05T05:40:16.478Z,1.77
2023-03-05T05:40:47.793Z,1.42
2023-03-05T05:41:19.616Z,0.60
2023-03-05T05:41:51.741Z,2.05
2023-03-05T05:42:23.905Z,2.03
2023-03-05T05:42:55.239Z,1.35
2023-03-05T05:43:26.605Z,1.35
2023-03-05T05:43:57.974Z,1.88
2023-03-05T05:44:29.372Z,1.40
2023-03-05T05:45:00.809Z,1.00
2023-03-05T05:45:32.677Z,1.92
2023-03-05T05:46:05.630Z,0.93
2023-03-05T05:46:37.091Z,1.50
2023-03-05T05:47:08.440Z,2.40
2023-03-05T05:47:39.881Z,1.08
2023-03-05T05:48:11.223Z,1.60
2023-03-05T05:48:42.808Z,3.00
2023-03-05T05:49:14.225Z,0.93
2023-03-05T05:49:45.534Z,1.73
2023-03-05T05:50:17.999Z,1.65
2023-03-05T05:50:49.358Z,1.20
2023-03-05T05:51:22.271Z,1.60
2023-03-05T05:51:53.583Z,2.45
2023-03-05T05:52:24.958Z,2.22
2023-03-05T05:52:56.396Z,1.50
2023-03-05T05:53:27.766Z,1.40
2023-03-05T05:53:59.217Z,2.25
2023-03-05T05:54:30.569Z,2.42
2023-03-05T05:55:01.912Z,2.00
2023-03-05T05:55:33.265Z,2.78
2023-03-05T05:56:05.631Z,3.40
2023-03-05T05:56:36.973Z,1.63
2023-03-05T05:57:08.539Z,1.70
2023-03-05T05:57:39.913Z,2.05
2023-03-05T05:58:11.295Z,2.50
2023-03-05T05:58:43.202Z,1.90
2023-03-05T05:59:14.577Z,1.80
2023-03-05T05:59:45.930Z,1.42
2023-03-05T06:00:17.433Z,1.10
2023-03-05T06:00:48.795Z,1.35
2023-03-05T06:01:22.007Z,1.48
2023-03-05T06:01:53.436Z,2.10
2023-03-05T06:02:24.826Z,0.60
2023-03-05T06:02:56.349Z,1.88
2023-03-05T06:03:27.729Z,1.97
2023-03-05T06:03:59.229Z,1.38
2023-03-05T06:04:30.593Z,1.55
2023-03-05T06:05:01.938Z,0.60
2023-03-05T06:05:33.685Z,1.95
2023-03-05T06:06:08.168Z,2.53
2023-03-05T06:06:39.521Z,0.20
2023-03-05T06:07:10.848Z,1.85
2023-03-05T06:07:42.317Z,2.25
2023-03-05T06:08:13.649Z,1.80
2023-03-05T06:08:45.103Z,0.80
2023-03-05T06:09:16.496Z,0.63
2023-03-05T06:09:47.873Z,1.20
2023-03-05T06:10:19.229Z,3.70
2023-03-05T06:10:54.592Z,3.10
2023-03-05T06:11:25.902Z,2.20
2023-03-05T06:11:57.398Z,0.70
2023-03-05T06:12:28.808Z,1.35
2023-03-05T06:13:00.201Z,0.77
2023-03-05T06:13:31.556Z,3.70
2023-03-05T06:14:02.969Z,0.93
2023-03-05T06:14:34.328Z,1.17
2023-03-05T06:15:06.027Z,1.00
2023-03-05T06:15:37.387Z,2.03
2023-03-05T06:16:11.654Z,1.95
2023-03-05T06:16:43.111Z,0.85
2023-03-05T06:17:21.886Z,0.73
2023-03-05T06:17:56.677Z,2.55
2023-03-05T06:18:28.080Z,1.70
2023-03-05T06:18:59.428Z,2.15
2023-03-05T06:19:30.766Z,1.48
2023-03-05T06:20:02.143Z,4.40
2023-03-05T06:20:33.548Z,1.75
2023-03-05T06:21:06.323Z,3.47
2023-03-05T06:21:37.677Z,0.80
2023-03-05T06:22:09.014Z,0.50
2023-03-05T06:22:40.452Z,2.08
2023-03-05T06:23:11.787Z,1.15
2023-03-05T06:23:43.720Z,1.38
2023-03-05T06:24:15.048Z,1.83
2023-03-05T06:24:46.404Z,3.60
2023-03-05T06:25:17.759Z,2.20
2023-03-05T06:25:49.237Z,1.70
2023-03-05T06:26:21.428Z,0.70
2023-03-05T06:26:52.795Z,0.90
2023-03-05T06:27:24.116Z,2.05
2023-03-05T06:27:55.433Z,1.05
2023-03-05T06:28:26.762Z,1.80
2023-03-05T06:28:58.133Z,2.13
2023-03-05T06:29:29.509Z,1.10
2023-03-05T06:30:01.047Z,2.88
2023-03-05T06:30:32.402Z,1.35
2023-03-05T06:31:04.959Z,2.28
2023-03-05T06:31:37.381Z,0.93
2023-03-05T06:32:08.973Z,2.08
2023-03-05T06:32:40.364Z,3.10
2023-03-05T06:33:11.833Z,1.63
2023-03-05T06:33:43.433Z,1.15
2023-03-05T06:34:14.798Z,1.05
2023-03-05T06:34:46.159Z,1.98
2023-03-05T06:35:17.530Z,3.10
2023-03-05T06:35:48.884Z,1.40
2023-03-05T06:36:20.998Z,1.27
2023-03-05T06:36:52.342Z,1.25
2023-03-05T06:37:23.675Z,2.50
2023-03-05T06:37:55.004Z,0.50
2023-03-05T06:38:26.341Z,0.80
2023-03-05T06:38:58.026Z,1.73
2023-03-05T06:39:29.348Z,0.85
2023-03-05T06:40:00.958Z,5.70
2023-03-05T06:40:32.341Z,1.20
2023-03-05T06:41:04.522Z,1.07
2023-03-05T06:41:36.070Z,1.30
2023-03-05T06:42:07.514Z,2.40
2023-03-05T06:42:38.876Z,2.80
2023-03-05T06:43:10.223Z,2.80
2023-03-05T06:43:42.456Z,0.73
2023-03-05T06:44:13.793Z,6.30
2023-03-05T06:44:47.206Z,1.10
2023-03-05T06:45:19.532Z,1.80
2023-03-05T06:46:01.004Z,1.58
2023-03-05T06:46:34.442Z,1.90
2023-03-05T06:47:06.510Z,2.60
2023-03-05T06:47:37.860Z,1.77
2023-03-05T06:48:09.199Z,3.53
2023-03-05T06:48:41.032Z,1.50
2023-03-05T06:49:12.398Z,2.17
2023-03-05T06:49:43.714Z,2.73
2023-03-05T06:50:15.082Z,1.23
2023-03-05T06:50:46.424Z,2.90
2023-03-05T06:51:17.764Z,1.58
2023-03-05T06:51:49.108Z,0.75
2023-03-05T06:52:20.470Z,3.10
2023-03-05T06:52:51.815Z,1.77
2023-03-05T06:53:26.349Z,1.52
2023-03-05T06:54:00.287Z,2.27
2023-03-05T06:54:31.651Z,2.33
2023-03-05T06:55:03.228Z,1.88
2023-03-05T06:55:36.185Z,2.08
2023-03-05T06:56:07.626Z,0.55
2023-03-05T06:56:39.685Z,1.03
2023-03-05T06:57:11.063Z,0.80
2023-03-05T06:57:42.439Z,1.93
2023-03-05T06:58:13.800Z,1.48
2023-03-05T06:58:45.987Z,2.65
2023-03-05T06:59:17.485Z,1.30
2023-03-05T06:59:49.238Z,0.68
2023-03-05T07:00:20.849Z,2.08
2023-03-05T07:00:52.968Z,1.70
2023-03-05T07:01:24.398Z,2.17
2023-03-05T07:01:55.818Z,1.05
2023-03-05T07:02:27.202Z,0.93
2023-03-05T07:02:58.560Z,1.45
2023-03-05T07:03:29.990Z,0.63
2023-03-05T07:04:01.590Z,1.50